CT2406 YOLW-YPPH
Flight info
| Callsign | CT2406 |
|---|---|
| Flight time | 2h 4m |
| Altitude | 25000 |
| Route | ONSLO DCT PANBA Y208 BORVI B469 TOPIR W206 OVLUK V16 WOORA Q38 PH |
| Aircraft | DH8D/M-SDE2E3FGRY/EB1 |
Departure
| Time | 2026-04-29 06:09 |
|---|---|
| Airport | Onslow Airport (YOLW) |
Arrival
| Time | 2026-04-29 08:13 |
|---|---|
| Airport | Perth International Airport (YPPH) |
| Time | Latitude | Longitude | Altitude | Speed | Heading |
|---|---|---|---|---|---|
| 2026-04-29 05:55 | -21.66607 | 115.11332 | 29 ft | 0 kts | 286° |
| 2026-04-29 06:06 | -21.66610 | 115.11325 | 28 ft | 4 kts | 217° |
| 2026-04-29 06:06 | -21.66651 | 115.11396 | 29 ft | 15 kts | 115° |
| 2026-04-29 06:07 | -21.66709 | 115.11503 | 24 ft | 17 kts | 118° |
| 2026-04-29 06:07 | -21.66760 | 115.11614 | 23 ft | 14 kts | 96° |
| 2026-04-29 06:07 | -21.66694 | 115.11685 | 22 ft | 19 kts | 28° |
| 2026-04-29 06:07 | -21.66535 | 115.11781 | 20 ft | 31 kts | 29° |
| 2026-04-29 06:08 | -21.66399 | 115.11835 | 20 ft | 11 kts | 28° |
| 2026-04-29 06:08 | -21.66412 | 115.11857 | 20 ft | 10 kts | 211° |
| 2026-04-29 06:08 | -21.66568 | 115.11760 | 20 ft | 60 kts | 210° |
| 2026-04-29 06:08 | -21.67199 | 115.11376 | 19 ft | 141 kts | 210° |
| 2026-04-29 06:09 | -21.68142 | 115.10793 | 301 ft | 159 kts | 216° |
| 2026-04-29 06:09 | -21.69130 | 115.10194 | 829 ft | 168 kts | 210° |
| 2026-04-29 06:09 | -21.70168 | 115.09609 | 1429 ft | 171 kts | 210° |
| 2026-04-29 06:09 | -21.71285 | 115.09174 | 1980 ft | 178 kts | 182° |
| 2026-04-29 06:10 | -21.72525 | 115.09448 | 2379 ft | 185 kts | 159° |
| 2026-04-29 06:10 | -21.73775 | 115.09905 | 2764 ft | 195 kts | 160° |
| 2026-04-29 06:10 | -21.75093 | 115.10386 | 3166 ft | 203 kts | 160° |
| 2026-04-29 06:10 | -21.76418 | 115.10900 | 3714 ft | 203 kts | 158° |
| 2026-04-29 06:11 | -21.77735 | 115.11433 | 4254 ft | 203 kts | 158° |
| 2026-04-29 06:11 | -21.79062 | 115.11974 | 4767 ft | 205 kts | 158° |
| 2026-04-29 06:11 | -21.80391 | 115.12511 | 5288 ft | 205 kts | 158° |
| 2026-04-29 06:11 | -21.81743 | 115.13055 | 5784 ft | 207 kts | 158° |
| 2026-04-29 06:12 | -21.83099 | 115.13602 | 6231 ft | 210 kts | 158° |
| 2026-04-29 06:12 | -21.84467 | 115.14157 | 6706 ft | 211 kts | 158° |
| 2026-04-29 06:12 | -21.85838 | 115.14728 | 7148 ft | 213 kts | 158° |
| 2026-04-29 06:12 | -21.87205 | 115.15313 | 7587 ft | 214 kts | 158° |
| 2026-04-29 06:13 | -21.88597 | 115.15923 | 8009 ft | 215 kts | 158° |
| 2026-04-29 06:13 | -21.89990 | 115.16544 | 8427 ft | 216 kts | 158° |
| 2026-04-29 06:13 | -21.91384 | 115.17177 | 8806 ft | 220 kts | 158° |
| 2026-04-29 06:13 | -21.92781 | 115.17821 | 9238 ft | 220 kts | 158° |
| 2026-04-29 06:14 | -21.94204 | 115.18488 | 9630 ft | 220 kts | 158° |
| 2026-04-29 06:14 | -21.95610 | 115.19154 | 9997 ft | 222 kts | 158° |
| 2026-04-29 06:14 | -21.97021 | 115.19827 | 10363 ft | 223 kts | 158° |
| 2026-04-29 06:14 | -21.98443 | 115.20515 | 10748 ft | 224 kts | 158° |
| 2026-04-29 06:15 | -21.99865 | 115.21204 | 11099 ft | 226 kts | 158° |
| 2026-04-29 06:15 | -22.01293 | 115.21905 | 11465 ft | 226 kts | 158° |
| 2026-04-29 06:15 | -22.02736 | 115.22617 | 11778 ft | 228 kts | 158° |
| 2026-04-29 06:15 | -22.04189 | 115.23339 | 12102 ft | 229 kts | 158° |
| 2026-04-29 06:16 | -22.05639 | 115.24063 | 12397 ft | 230 kts | 158° |
| 2026-04-29 06:16 | -22.07111 | 115.24763 | 12701 ft | 230 kts | 163° |
| 2026-04-29 06:16 | -22.08645 | 115.25229 | 12985 ft | 230 kts | 170° |
| 2026-04-29 06:16 | -22.10220 | 115.25575 | 13265 ft | 231 kts | 173° |
| 2026-04-29 06:17 | -22.11810 | 115.25857 | 13557 ft | 231 kts | 175° |
| 2026-04-29 06:17 | -22.13407 | 115.26094 | 13841 ft | 232 kts | 176° |
| 2026-04-29 06:17 | -22.15019 | 115.26296 | 14105 ft | 233 kts | 178° |
| 2026-04-29 06:17 | -22.16658 | 115.26475 | 14384 ft | 234 kts | 179° |
| 2026-04-29 06:18 | -22.18273 | 115.26633 | 14634 ft | 234 kts | 179° |
| 2026-04-29 06:18 | -22.19903 | 115.26778 | 14871 ft | 236 kts | 179° |
| 2026-04-29 06:18 | -22.21562 | 115.26915 | 15123 ft | 236 kts | 180° |
| 2026-04-29 06:18 | -22.23199 | 115.27042 | 15353 ft | 237 kts | 180° |
| 2026-04-29 06:19 | -22.24857 | 115.27166 | 15568 ft | 239 kts | 180° |
| 2026-04-29 06:19 | -22.26523 | 115.27285 | 15785 ft | 240 kts | 181° |
| 2026-04-29 06:19 | -22.28210 | 115.27403 | 16011 ft | 241 kts | 181° |
| 2026-04-29 06:19 | -22.29894 | 115.27519 | 16227 ft | 242 kts | 181° |
| 2026-04-29 06:20 | -22.31583 | 115.27633 | 16434 ft | 243 kts | 181° |
| 2026-04-29 06:20 | -22.33273 | 115.27747 | 16638 ft | 244 kts | 181° |
| 2026-04-29 06:20 | -22.34975 | 115.27859 | 16854 ft | 244 kts | 181° |
| 2026-04-29 06:20 | -22.36658 | 115.27970 | 17026 ft | 245 kts | 182° |
| 2026-04-29 06:21 | -22.38361 | 115.28083 | 17238 ft | 245 kts | 182° |
| 2026-04-29 06:21 | -22.40076 | 115.28195 | 17426 ft | 246 kts | 182° |
| 2026-04-29 06:21 | -22.41790 | 115.28307 | 17612 ft | 247 kts | 182° |
| 2026-04-29 06:21 | -22.43511 | 115.28419 | 17802 ft | 247 kts | 182° |
| 2026-04-29 06:22 | -22.45232 | 115.28532 | 17971 ft | 249 kts | 182° |
| 2026-04-29 06:22 | -22.46967 | 115.28645 | 18164 ft | 249 kts | 182° |
| 2026-04-29 06:22 | -22.48714 | 115.28758 | 18357 ft | 249 kts | 182° |
| 2026-04-29 06:22 | -22.50456 | 115.28872 | 18519 ft | 250 kts | 182° |
| 2026-04-29 06:23 | -22.52194 | 115.28986 | 18708 ft | 250 kts | 182° |
| 2026-04-29 06:23 | -22.53933 | 115.29099 | 18871 ft | 250 kts | 182° |
| 2026-04-29 06:23 | -22.55692 | 115.29213 | 19021 ft | 252 kts | 182° |
| 2026-04-29 06:23 | -22.57446 | 115.29328 | 19220 ft | 251 kts | 182° |
| 2026-04-29 06:24 | -22.59203 | 115.29442 | 19357 ft | 252 kts | 182° |
| 2026-04-29 06:24 | -22.60957 | 115.29556 | 19501 ft | 253 kts | 182° |
| 2026-04-29 06:24 | -22.62719 | 115.29671 | 19679 ft | 252 kts | 182° |
| 2026-04-29 06:24 | -22.64474 | 115.29785 | 19794 ft | 254 kts | 182° |
| 2026-04-29 06:25 | -22.66229 | 115.29900 | 19966 ft | 253 kts | 183° |
| 2026-04-29 06:25 | -22.68006 | 115.30016 | 20079 ft | 255 kts | 183° |
| 2026-04-29 06:25 | -22.69777 | 115.30132 | 20252 ft | 254 kts | 183° |
| 2026-04-29 06:25 | -22.71543 | 115.30246 | 20351 ft | 256 kts | 183° |
| 2026-04-29 06:26 | -22.73343 | 115.30363 | 20500 ft | 255 kts | 183° |
| 2026-04-29 06:26 | -22.75119 | 115.30479 | 20597 ft | 257 kts | 183° |
| 2026-04-29 06:26 | -22.76903 | 115.30595 | 20761 ft | 256 kts | 183° |
| 2026-04-29 06:26 | -22.78690 | 115.30712 | 20864 ft | 257 kts | 183° |
| 2026-04-29 06:27 | -22.80484 | 115.30830 | 20973 ft | 258 kts | 183° |
| 2026-04-29 06:27 | -22.82254 | 115.30945 | 21093 ft | 258 kts | 183° |
| 2026-04-29 06:27 | -22.84054 | 115.31062 | 21202 ft | 258 kts | 183° |
| 2026-04-29 06:27 | -22.85855 | 115.31180 | 21323 ft | 257 kts | 183° |
| 2026-04-29 06:28 | -22.87629 | 115.31298 | 21544 ft | 252 kts | 183° |
| 2026-04-29 06:28 | -22.89374 | 115.31415 | 21775 ft | 246 kts | 184° |
| 2026-04-29 06:28 | -22.91079 | 115.31526 | 21883 ft | 245 kts | 184° |
| 2026-04-29 06:28 | -22.92794 | 115.31637 | 21942 ft | 247 kts | 184° |
| 2026-04-29 06:29 | -22.94516 | 115.31747 | 22040 ft | 246 kts | 184° |
| 2026-04-29 06:29 | -22.96232 | 115.31859 | 22108 ft | 247 kts | 184° |
| 2026-04-29 06:29 | -22.97955 | 115.31970 | 22175 ft | 248 kts | 184° |
| 2026-04-29 06:29 | -22.99669 | 115.32082 | 22260 ft | 247 kts | 184° |
| 2026-04-29 06:30 | -23.01397 | 115.32195 | 22339 ft | 247 kts | 184° |
| 2026-04-29 06:30 | -23.04848 | 115.32419 | 22555 ft | 248 kts | 185° |
| 2026-04-29 06:30 | -23.06576 | 115.32530 | 22731 ft | 249 kts | 184° |
| 2026-04-29 06:31 | -23.08299 | 115.32642 | 22939 ft | 248 kts | 184° |
| 2026-04-29 06:31 | -23.10033 | 115.32757 | 23203 ft | 244 kts | 184° |
| 2026-04-29 06:31 | -23.11708 | 115.32868 | 23467 ft | 240 kts | 184° |
| 2026-04-29 06:31 | -23.13366 | 115.32978 | 23720 ft | 235 kts | 185° |
| 2026-04-29 06:32 | -23.15011 | 115.33086 | 23761 ft | 234 kts | 185° |
| 2026-04-29 06:32 | -23.16616 | 115.33192 | 23809 ft | 232 kts | 185° |
| 2026-04-29 06:32 | -23.18223 | 115.33298 | 23858 ft | 230 kts | 185° |
| 2026-04-29 06:32 | -23.19830 | 115.33402 | 23837 ft | 232 kts | 185° |
| 2026-04-29 06:33 | -23.21494 | 115.33504 | 23647 ft | 242 kts | 185° |
| 2026-04-29 06:33 | -23.23215 | 115.33612 | 23445 ft | 253 kts | 184° |
| 2026-04-29 06:33 | -23.24991 | 115.33725 | 23245 ft | 264 kts | 184° |
| 2026-04-29 06:33 | -23.26872 | 115.33846 | 23054 ft | 273 kts | 184° |
| 2026-04-29 06:34 | -23.28800 | 115.33975 | 22991 ft | 278 kts | 184° |
| 2026-04-29 06:34 | -23.30737 | 115.34106 | 22975 ft | 281 kts | 183° |
| 2026-04-29 06:34 | -23.32718 | 115.34238 | 22969 ft | 283 kts | 184° |
| 2026-04-29 06:34 | -23.34700 | 115.34372 | 22967 ft | 286 kts | 183° |
| 2026-04-29 06:35 | -23.36692 | 115.34505 | 22969 ft | 288 kts | 184° |
| 2026-04-29 06:35 | -23.38708 | 115.34639 | 22968 ft | 290 kts | 183° |
| 2026-04-29 06:35 | -23.40739 | 115.34774 | 22970 ft | 292 kts | 183° |
| 2026-04-29 06:35 | -23.42781 | 115.34910 | 22970 ft | 294 kts | 183° |
| 2026-04-29 06:36 | -23.44837 | 115.35046 | 22969 ft | 296 kts | 183° |
| 2026-04-29 06:36 | -23.46905 | 115.35182 | 22971 ft | 298 kts | 183° |
| 2026-04-29 06:36 | -23.48974 | 115.35319 | 22971 ft | 300 kts | 183° |
| 2026-04-29 06:36 | -23.51078 | 115.35458 | 22971 ft | 302 kts | 183° |
| 2026-04-29 06:37 | -23.53207 | 115.35599 | 22971 ft | 304 kts | 184° |
| 2026-04-29 06:37 | -23.55305 | 115.35738 | 22972 ft | 306 kts | 183° |
| 2026-04-29 06:37 | -23.57453 | 115.35880 | 22971 ft | 308 kts | 183° |
| 2026-04-29 06:37 | -23.59614 | 115.36022 | 22972 ft | 309 kts | 183° |
| 2026-04-29 06:38 | -23.61768 | 115.36165 | 22972 ft | 311 kts | 183° |
| 2026-04-29 06:38 | -23.63931 | 115.36308 | 22972 ft | 313 kts | 183° |
| 2026-04-29 06:38 | -23.66116 | 115.36453 | 22973 ft | 314 kts | 183° |
| 2026-04-29 06:38 | -23.68307 | 115.36597 | 22974 ft | 315 kts | 183° |
| 2026-04-29 06:39 | -23.70501 | 115.36743 | 22973 ft | 316 kts | 183° |
| 2026-04-29 06:39 | -23.72710 | 115.36890 | 22971 ft | 317 kts | 183° |
| 2026-04-29 06:39 | -23.74916 | 115.37035 | 22972 ft | 318 kts | 183° |
| 2026-04-29 06:39 | -23.77140 | 115.37183 | 22973 ft | 319 kts | 183° |
| 2026-04-29 06:40 | -23.79367 | 115.37331 | 22975 ft | 319 kts | 183° |
| 2026-04-29 06:40 | -23.81570 | 115.37477 | 22979 ft | 320 kts | 183° |
| 2026-04-29 06:40 | -23.83811 | 115.37625 | 22975 ft | 320 kts | 183° |
| 2026-04-29 06:40 | -23.86055 | 115.37774 | 22975 ft | 321 kts | 183° |
| 2026-04-29 06:41 | -23.88269 | 115.37921 | 22977 ft | 321 kts | 183° |
| 2026-04-29 06:41 | -23.90511 | 115.38070 | 22980 ft | 322 kts | 183° |
| 2026-04-29 06:41 | -23.92757 | 115.38219 | 22980 ft | 322 kts | 183° |
| 2026-04-29 06:41 | -23.94994 | 115.38367 | 22981 ft | 322 kts | 183° |
| 2026-04-29 06:42 | -23.97263 | 115.38518 | 22979 ft | 322 kts | 183° |
| 2026-04-29 06:42 | -23.99512 | 115.38667 | 22981 ft | 322 kts | 183° |
| 2026-04-29 06:42 | -24.01759 | 115.38817 | 22982 ft | 322 kts | 183° |
| 2026-04-29 06:42 | -24.03984 | 115.38965 | 22980 ft | 323 kts | 184° |
| 2026-04-29 06:43 | -24.06240 | 115.39114 | 22979 ft | 323 kts | 184° |
| 2026-04-29 06:43 | -24.08469 | 115.39262 | 22978 ft | 323 kts | 183° |
| 2026-04-29 06:43 | -24.10744 | 115.39414 | 22977 ft | 323 kts | 183° |
| 2026-04-29 06:43 | -24.12977 | 115.39563 | 22975 ft | 323 kts | 183° |
| 2026-04-29 06:44 | -24.15234 | 115.39713 | 22969 ft | 323 kts | 183° |
| 2026-04-29 06:44 | -24.17494 | 115.39864 | 22964 ft | 324 kts | 183° |
| 2026-04-29 06:44 | -24.19756 | 115.40014 | 22963 ft | 324 kts | 183° |
| 2026-04-29 06:44 | -24.21994 | 115.40163 | 22957 ft | 324 kts | 183° |
| 2026-04-29 06:45 | -24.24249 | 115.40313 | 22958 ft | 324 kts | 183° |
| 2026-04-29 06:45 | -24.26507 | 115.40464 | 22961 ft | 324 kts | 183° |
| 2026-04-29 06:45 | -24.28777 | 115.40615 | 22959 ft | 324 kts | 183° |
| 2026-04-29 06:45 | -24.31043 | 115.40766 | 22955 ft | 325 kts | 184° |
| 2026-04-29 06:46 | -24.33284 | 115.40916 | 22952 ft | 325 kts | 183° |
| 2026-04-29 06:46 | -24.35561 | 115.41067 | 22955 ft | 325 kts | 184° |
| 2026-04-29 06:46 | -24.37810 | 115.41218 | 22951 ft | 325 kts | 184° |
| 2026-04-29 06:46 | -24.40066 | 115.41369 | 22954 ft | 325 kts | 184° |
| 2026-04-29 06:47 | -24.42334 | 115.41520 | 22950 ft | 325 kts | 184° |
| 2026-04-29 06:47 | -24.44607 | 115.41672 | 22948 ft | 325 kts | 184° |
| 2026-04-29 06:47 | -24.46876 | 115.41824 | 22950 ft | 325 kts | 184° |
| 2026-04-29 06:47 | -24.49126 | 115.41975 | 22951 ft | 325 kts | 184° |
| 2026-04-29 06:48 | -24.51396 | 115.42126 | 22946 ft | 325 kts | 184° |
| 2026-04-29 06:48 | -24.53665 | 115.42278 | 22947 ft | 325 kts | 184° |
| 2026-04-29 06:48 | -24.55936 | 115.42430 | 22948 ft | 325 kts | 183° |
| 2026-04-29 06:48 | -24.58176 | 115.42580 | 22949 ft | 325 kts | 184° |
| 2026-04-29 06:49 | -24.60462 | 115.42734 | 22950 ft | 325 kts | 184° |
| 2026-04-29 06:49 | -24.62725 | 115.42885 | 22953 ft | 325 kts | 184° |
| 2026-04-29 06:49 | -24.64970 | 115.43036 | 22951 ft | 326 kts | 184° |
| 2026-04-29 06:49 | -24.67245 | 115.43188 | 22950 ft | 326 kts | 184° |
| 2026-04-29 06:50 | -24.69512 | 115.43340 | 22952 ft | 325 kts | 184° |
| 2026-04-29 06:50 | -24.71762 | 115.43491 | 22959 ft | 325 kts | 184° |
| 2026-04-29 06:50 | -24.74042 | 115.43645 | 22963 ft | 325 kts | 184° |
| 2026-04-29 06:50 | -24.76306 | 115.43797 | 22967 ft | 325 kts | 184° |
| 2026-04-29 06:51 | -24.78555 | 115.43948 | 22967 ft | 325 kts | 184° |
| 2026-04-29 06:51 | -24.80824 | 115.44101 | 22969 ft | 325 kts | 184° |
| 2026-04-29 06:51 | -24.83095 | 115.44254 | 22966 ft | 325 kts | 184° |
| 2026-04-29 06:51 | -24.85339 | 115.44405 | 22967 ft | 325 kts | 184° |
| 2026-04-29 06:52 | -24.87607 | 115.44557 | 22970 ft | 325 kts | 184° |
| 2026-04-29 06:52 | -24.89881 | 115.44710 | 22967 ft | 325 kts | 184° |
| 2026-04-29 06:52 | -24.90965 | 115.44783 | 22966 ft | 325 kts | 184° |
| 2026-04-29 06:52 | -24.93241 | 115.44937 | 22966 ft | 324 kts | 184° |
| 2026-04-29 06:53 | -24.95475 | 115.45087 | 22965 ft | 324 kts | 184° |
| 2026-04-29 06:53 | -24.97744 | 115.45240 | 22964 ft | 324 kts | 184° |
| 2026-04-29 06:53 | -25.00012 | 115.45393 | 22963 ft | 324 kts | 184° |
| 2026-04-29 06:53 | -25.02267 | 115.45545 | 22961 ft | 324 kts | 184° |
| 2026-04-29 06:54 | -25.04503 | 115.45695 | 22961 ft | 325 kts | 184° |
| 2026-04-29 06:54 | -25.06772 | 115.45849 | 22965 ft | 325 kts | 184° |
| 2026-04-29 06:54 | -25.09041 | 115.46001 | 22965 ft | 326 kts | 184° |
| 2026-04-29 06:54 | -25.11313 | 115.46155 | 22961 ft | 326 kts | 184° |
| 2026-04-29 06:55 | -25.13605 | 115.46310 | 22965 ft | 326 kts | 184° |
| 2026-04-29 06:55 | -25.15853 | 115.46462 | 22964 ft | 326 kts | 184° |
| 2026-04-29 06:55 | -25.18138 | 115.46616 | 22962 ft | 326 kts | 184° |
| 2026-04-29 06:55 | -25.20404 | 115.46770 | 22964 ft | 326 kts | 184° |
| 2026-04-29 06:56 | -25.22665 | 115.46923 | 22963 ft | 327 kts | 184° |
| 2026-04-29 06:56 | -25.24945 | 115.47077 | 22959 ft | 327 kts | 184° |
| 2026-04-29 06:56 | -25.27227 | 115.47232 | 22960 ft | 327 kts | 184° |
| 2026-04-29 06:56 | -25.29489 | 115.47385 | 22965 ft | 327 kts | 184° |
| 2026-04-29 06:57 | -25.31778 | 115.47540 | 22967 ft | 327 kts | 184° |
| 2026-04-29 06:57 | -25.34060 | 115.47695 | 22968 ft | 328 kts | 184° |
| 2026-04-29 06:57 | -25.36326 | 115.47849 | 22963 ft | 328 kts | 184° |
| 2026-04-29 06:57 | -25.38624 | 115.48005 | 22963 ft | 328 kts | 184° |
| 2026-04-29 06:58 | -25.40891 | 115.48159 | 22969 ft | 328 kts | 184° |
| 2026-04-29 06:58 | -25.43186 | 115.48315 | 22972 ft | 328 kts | 184° |
| 2026-04-29 06:58 | -25.45462 | 115.48470 | 22970 ft | 328 kts | 184° |
| 2026-04-29 06:58 | -25.47744 | 115.48624 | 22973 ft | 329 kts | 184° |
| 2026-04-29 06:59 | -25.50047 | 115.48781 | 22975 ft | 329 kts | 184° |
| 2026-04-29 06:59 | -25.52350 | 115.48937 | 22974 ft | 329 kts | 184° |
| 2026-04-29 06:59 | -25.54643 | 115.49094 | 22976 ft | 329 kts | 184° |
| 2026-04-29 06:59 | -25.56912 | 115.49248 | 22979 ft | 329 kts | 184° |
| 2026-04-29 07:00 | -25.59230 | 115.49406 | 22977 ft | 330 kts | 184° |
| 2026-04-29 07:00 | -25.61506 | 115.49560 | 22974 ft | 330 kts | 184° |
| 2026-04-29 07:00 | -25.63810 | 115.49718 | 22976 ft | 330 kts | 184° |
| 2026-04-29 07:00 | -25.66117 | 115.49875 | 22977 ft | 330 kts | 184° |
| 2026-04-29 07:01 | -25.68398 | 115.50030 | 22978 ft | 331 kts | 184° |
| 2026-04-29 07:01 | -25.70730 | 115.50190 | 22973 ft | 331 kts | 185° |
| 2026-04-29 07:01 | -25.73032 | 115.50347 | 22976 ft | 331 kts | 184° |
| 2026-04-29 07:01 | -25.75325 | 115.50503 | 22976 ft | 331 kts | 185° |
| 2026-04-29 07:02 | -25.77638 | 115.50661 | 22981 ft | 332 kts | 185° |
| 2026-04-29 07:02 | -25.79927 | 115.50818 | 22979 ft | 332 kts | 185° |
| 2026-04-29 07:02 | -25.82239 | 115.50976 | 22973 ft | 332 kts | 185° |
| 2026-04-29 07:02 | -25.84560 | 115.51135 | 22969 ft | 333 kts | 184° |
| 2026-04-29 07:03 | -25.86889 | 115.51294 | 22973 ft | 333 kts | 185° |
| 2026-04-29 07:03 | -25.89210 | 115.51453 | 22975 ft | 333 kts | 184° |
| 2026-04-29 07:03 | -25.91503 | 115.51610 | 22973 ft | 333 kts | 185° |
| 2026-04-29 07:03 | -25.93822 | 115.51769 | 22969 ft | 333 kts | 184° |
| 2026-04-29 07:04 | -25.96158 | 115.51929 | 22971 ft | 334 kts | 185° |
| 2026-04-29 07:04 | -25.98492 | 115.52088 | 22971 ft | 334 kts | 185° |
| 2026-04-29 07:04 | -26.00793 | 115.52246 | 22970 ft | 334 kts | 185° |
| 2026-04-29 07:04 | -26.03129 | 115.52406 | 22971 ft | 335 kts | 185° |
| 2026-04-29 07:05 | -26.05468 | 115.52567 | 22970 ft | 335 kts | 185° |
| 2026-04-29 07:05 | -26.07810 | 115.52728 | 22970 ft | 335 kts | 185° |
| 2026-04-29 07:05 | -26.10125 | 115.52887 | 22969 ft | 336 kts | 185° |
| 2026-04-29 07:05 | -26.12468 | 115.53048 | 22967 ft | 336 kts | 185° |
| 2026-04-29 07:06 | -26.14829 | 115.53210 | 22970 ft | 335 kts | 185° |
| 2026-04-29 07:06 | -26.17164 | 115.53371 | 22971 ft | 336 kts | 185° |
| 2026-04-29 07:06 | -26.19470 | 115.53530 | 22973 ft | 336 kts | 185° |
| 2026-04-29 07:06 | -26.21816 | 115.53691 | 22972 ft | 336 kts | 185° |
| 2026-04-29 07:07 | -26.24157 | 115.53853 | 22968 ft | 336 kts | 185° |
| 2026-04-29 07:07 | -26.26479 | 115.54013 | 22973 ft | 336 kts | 185° |
| 2026-04-29 07:07 | -26.28829 | 115.54175 | 22974 ft | 336 kts | 185° |
| 2026-04-29 07:07 | -26.31145 | 115.54334 | 22979 ft | 336 kts | 185° |
| 2026-04-29 07:08 | -26.33502 | 115.54497 | 22983 ft | 336 kts | 185° |
| 2026-04-29 07:08 | -26.35823 | 115.54657 | 22977 ft | 336 kts | 185° |
| 2026-04-29 07:08 | -26.38172 | 115.54820 | 22978 ft | 336 kts | 185° |
| 2026-04-29 07:08 | -26.40517 | 115.54981 | 22975 ft | 336 kts | 185° |
| 2026-04-29 07:09 | -26.42844 | 115.55142 | 22976 ft | 336 kts | 185° |
| 2026-04-29 07:09 | -26.45199 | 115.55305 | 22980 ft | 336 kts | 185° |
| 2026-04-29 07:09 | -26.47516 | 115.55465 | 22980 ft | 335 kts | 185° |
| 2026-04-29 07:09 | -26.49859 | 115.55627 | 22978 ft | 335 kts | 185° |
| 2026-04-29 07:10 | -26.52196 | 115.55789 | 22978 ft | 335 kts | 185° |
| 2026-04-29 07:10 | -26.54530 | 115.55951 | 22980 ft | 335 kts | 185° |
| 2026-04-29 07:10 | -26.56834 | 115.56110 | 22982 ft | 335 kts | 185° |
| 2026-04-29 07:10 | -26.59181 | 115.56272 | 22981 ft | 335 kts | 185° |
| 2026-04-29 07:11 | -26.61521 | 115.56435 | 22987 ft | 335 kts | 186° |
| 2026-04-29 07:11 | -26.63839 | 115.56596 | 22986 ft | 335 kts | 185° |
| 2026-04-29 07:11 | -26.66182 | 115.56757 | 22985 ft | 335 kts | 185° |
| 2026-04-29 07:11 | -26.68518 | 115.56920 | 22990 ft | 335 kts | 186° |
| 2026-04-29 07:12 | -26.70867 | 115.57083 | 22993 ft | 335 kts | 186° |
| 2026-04-29 07:12 | -26.73186 | 115.57244 | 22993 ft | 335 kts | 186° |
| 2026-04-29 07:12 | -26.75526 | 115.57407 | 22991 ft | 335 kts | 185° |
| 2026-04-29 07:12 | -26.77867 | 115.57569 | 22991 ft | 335 kts | 186° |
| 2026-04-29 07:13 | -26.80201 | 115.57732 | 22996 ft | 335 kts | 186° |
| 2026-04-29 07:13 | -26.82513 | 115.57893 | 22997 ft | 335 kts | 186° |
| 2026-04-29 07:13 | -26.84848 | 115.58055 | 22993 ft | 335 kts | 186° |
| 2026-04-29 07:13 | -26.87185 | 115.58218 | 22991 ft | 335 kts | 186° |
| 2026-04-29 07:14 | -26.89522 | 115.58381 | 22992 ft | 335 kts | 186° |
| 2026-04-29 07:14 | -26.91857 | 115.58543 | 22993 ft | 335 kts | 186° |
| 2026-04-29 07:14 | -26.94185 | 115.58706 | 22995 ft | 335 kts | 186° |
| 2026-04-29 07:14 | -26.96514 | 115.58868 | 22995 ft | 335 kts | 186° |
| 2026-04-29 07:15 | -26.98843 | 115.59030 | 22991 ft | 335 kts | 186° |
| 2026-04-29 07:15 | -27.01176 | 115.59193 | 22990 ft | 335 kts | 186° |
| 2026-04-29 07:15 | -27.03509 | 115.59356 | 22986 ft | 335 kts | 186° |
| 2026-04-29 07:15 | -27.05843 | 115.59519 | 22981 ft | 335 kts | 186° |
| 2026-04-29 07:16 | -27.08153 | 115.59680 | 22977 ft | 335 kts | 186° |
| 2026-04-29 07:16 | -27.10494 | 115.59843 | 22979 ft | 336 kts | 186° |
| 2026-04-29 07:16 | -27.12838 | 115.60008 | 22975 ft | 336 kts | 186° |
| 2026-04-29 07:16 | -27.15159 | 115.60170 | 22976 ft | 335 kts | 186° |
| 2026-04-29 07:17 | -27.17499 | 115.60334 | 22975 ft | 335 kts | 186° |
| 2026-04-29 07:17 | -27.19837 | 115.60497 | 22975 ft | 336 kts | 186° |
| 2026-04-29 07:17 | -27.22171 | 115.60661 | 22978 ft | 336 kts | 186° |
| 2026-04-29 07:17 | -27.24505 | 115.60825 | 22978 ft | 336 kts | 186° |
| 2026-04-29 07:18 | -27.26837 | 115.60988 | 22977 ft | 336 kts | 186° |
| 2026-04-29 07:18 | -27.29178 | 115.61153 | 22978 ft | 336 kts | 186° |
| 2026-04-29 07:18 | -27.31520 | 115.61317 | 22976 ft | 336 kts | 186° |
| 2026-04-29 07:18 | -27.33857 | 115.61481 | 22974 ft | 336 kts | 186° |
| 2026-04-29 07:19 | -27.36198 | 115.61646 | 22969 ft | 336 kts | 186° |
| 2026-04-29 07:19 | -27.38538 | 115.62097 | 22949 ft | 351 kts | 169° |
| 2026-04-29 07:19 | -27.40767 | 115.63266 | 22966 ft | 357 kts | 161° |
| 2026-04-29 07:19 | -27.42974 | 115.64542 | 22969 ft | 357 kts | 161° |
| 2026-04-29 07:20 | -27.45173 | 115.65817 | 22968 ft | 357 kts | 161° |
| 2026-04-29 07:20 | -27.47384 | 115.67098 | 22969 ft | 356 kts | 161° |
| 2026-04-29 07:20 | -27.49598 | 115.68377 | 22970 ft | 356 kts | 161° |
| 2026-04-29 07:20 | -27.51814 | 115.69655 | 22968 ft | 356 kts | 161° |
| 2026-04-29 07:21 | -27.54015 | 115.70923 | 22969 ft | 355 kts | 161° |
| 2026-04-29 07:21 | -27.56230 | 115.72198 | 22972 ft | 355 kts | 161° |
| 2026-04-29 07:21 | -27.58427 | 115.73462 | 22968 ft | 355 kts | 161° |
| 2026-04-29 07:21 | -27.60628 | 115.74728 | 22967 ft | 355 kts | 161° |
| 2026-04-29 07:22 | -27.62830 | 115.75994 | 22969 ft | 355 kts | 161° |
| 2026-04-29 07:22 | -27.65030 | 115.77260 | 22975 ft | 355 kts | 161° |
| 2026-04-29 07:22 | -27.67241 | 115.78532 | 22973 ft | 355 kts | 161° |
| 2026-04-29 07:22 | -27.69423 | 115.79788 | 22977 ft | 355 kts | 161° |
| 2026-04-29 07:23 | -27.71627 | 115.81057 | 22978 ft | 355 kts | 161° |
| 2026-04-29 07:23 | -27.73839 | 115.82330 | 22978 ft | 355 kts | 161° |
| 2026-04-29 07:23 | -27.76020 | 115.83587 | 22979 ft | 355 kts | 161° |
| 2026-04-29 07:23 | -27.78234 | 115.84863 | 22979 ft | 355 kts | 162° |
| 2026-04-29 07:24 | -27.80442 | 115.86136 | 22978 ft | 355 kts | 162° |
| 2026-04-29 07:24 | -27.82644 | 115.87407 | 22979 ft | 355 kts | 161° |
| 2026-04-29 07:24 | -27.84851 | 115.88680 | 22981 ft | 355 kts | 161° |
| 2026-04-29 07:24 | -27.87032 | 115.89939 | 22982 ft | 355 kts | 162° |
| 2026-04-29 07:25 | -27.89246 | 115.91218 | 22975 ft | 355 kts | 161° |
| 2026-04-29 07:25 | -27.91441 | 115.92487 | 22976 ft | 355 kts | 161° |
| 2026-04-29 07:25 | -27.93653 | 115.93766 | 22977 ft | 355 kts | 161° |
| 2026-04-29 07:25 | -27.95856 | 115.95040 | 22980 ft | 355 kts | 161° |
| 2026-04-29 07:26 | -27.98057 | 115.96313 | 22980 ft | 355 kts | 161° |
| 2026-04-29 07:26 | -28.00272 | 115.97596 | 22977 ft | 355 kts | 161° |
| 2026-04-29 07:26 | -28.02455 | 115.98860 | 22977 ft | 355 kts | 161° |
| 2026-04-29 07:26 | -28.04674 | 116.00146 | 22977 ft | 355 kts | 161° |
| 2026-04-29 07:27 | -28.06864 | 116.01416 | 22975 ft | 355 kts | 161° |
| 2026-04-29 07:27 | -28.09081 | 116.02702 | 22974 ft | 355 kts | 161° |
| 2026-04-29 07:27 | -28.11280 | 116.03978 | 22975 ft | 356 kts | 161° |
| 2026-04-29 07:27 | -28.13480 | 116.05255 | 22978 ft | 356 kts | 161° |
| 2026-04-29 07:28 | -28.15692 | 116.06540 | 22977 ft | 356 kts | 161° |
| 2026-04-29 07:28 | -28.17904 | 116.07825 | 22978 ft | 356 kts | 161° |
| 2026-04-29 07:28 | -28.20121 | 116.09114 | 22977 ft | 356 kts | 161° |
| 2026-04-29 07:28 | -28.22327 | 116.10397 | 22976 ft | 356 kts | 161° |
| 2026-04-29 07:29 | -28.24533 | 116.11681 | 22976 ft | 356 kts | 161° |
| 2026-04-29 07:29 | -28.26746 | 116.12970 | 22978 ft | 356 kts | 161° |
| 2026-04-29 07:29 | -28.28940 | 116.14248 | 22981 ft | 356 kts | 161° |
| 2026-04-29 07:29 | -28.31135 | 116.15527 | 22979 ft | 356 kts | 161° |
| 2026-04-29 07:30 | -28.33358 | 116.16823 | 22977 ft | 356 kts | 161° |
| 2026-04-29 07:30 | -28.35574 | 116.18116 | 22983 ft | 356 kts | 161° |
| 2026-04-29 07:30 | -28.37783 | 116.19405 | 22981 ft | 357 kts | 161° |
| 2026-04-29 07:31 | -28.42202 | 116.21985 | 22978 ft | 357 kts | 161° |
| 2026-04-29 07:31 | -28.44420 | 116.23282 | 22978 ft | 357 kts | 161° |
| 2026-04-29 07:31 | -28.46608 | 116.24560 | 22985 ft | 357 kts | 161° |
| 2026-04-29 07:31 | -28.48816 | 116.25852 | 22988 ft | 357 kts | 161° |
| 2026-04-29 07:32 | -28.51049 | 116.27159 | 22989 ft | 357 kts | 161° |
| 2026-04-29 07:32 | -28.53238 | 116.28441 | 22987 ft | 357 kts | 161° |
| 2026-04-29 07:32 | -28.55454 | 116.29739 | 22989 ft | 357 kts | 160° |
| 2026-04-29 07:32 | -28.57673 | 116.31039 | 22987 ft | 357 kts | 161° |
| 2026-04-29 07:33 | -28.59893 | 116.32341 | 22990 ft | 357 kts | 161° |
| 2026-04-29 07:33 | -28.62081 | 116.33624 | 22994 ft | 357 kts | 160° |
| 2026-04-29 07:33 | -28.64294 | 116.34923 | 22994 ft | 357 kts | 161° |
| 2026-04-29 07:33 | -28.66520 | 116.36230 | 22994 ft | 357 kts | 160° |
| 2026-04-29 07:34 | -28.68741 | 116.37535 | 22995 ft | 357 kts | 160° |
| 2026-04-29 07:34 | -28.70934 | 116.38824 | 22998 ft | 357 kts | 160° |
| 2026-04-29 07:34 | -28.73151 | 116.40128 | 22997 ft | 358 kts | 160° |
| 2026-04-29 07:34 | -28.75378 | 116.41438 | 22998 ft | 358 kts | 160° |
| 2026-04-29 07:35 | -28.77597 | 116.42744 | 22992 ft | 358 kts | 160° |
| 2026-04-29 07:35 | -28.79786 | 116.44032 | 22987 ft | 358 kts | 160° |
| 2026-04-29 07:35 | -28.82020 | 116.45349 | 22990 ft | 358 kts | 160° |
| 2026-04-29 07:35 | -28.84250 | 116.46664 | 22990 ft | 358 kts | 160° |
| 2026-04-29 07:36 | -28.86446 | 116.47958 | 22992 ft | 358 kts | 160° |
| 2026-04-29 07:36 | -28.88670 | 116.49271 | 22992 ft | 358 kts | 160° |
| 2026-04-29 07:36 | -28.90892 | 116.50582 | 22992 ft | 358 kts | 160° |
| 2026-04-29 07:36 | -28.93114 | 116.51894 | 22989 ft | 359 kts | 160° |
| 2026-04-29 07:37 | -28.95347 | 116.53213 | 22989 ft | 359 kts | 160° |
| 2026-04-29 07:37 | -28.97542 | 116.54512 | 22988 ft | 359 kts | 160° |
| 2026-04-29 07:37 | -28.99772 | 116.55830 | 22987 ft | 359 kts | 160° |
| 2026-04-29 07:37 | -29.01980 | 116.57137 | 22989 ft | 359 kts | 160° |
| 2026-04-29 07:38 | -29.04200 | 116.58451 | 22988 ft | 359 kts | 160° |
| 2026-04-29 07:38 | -29.06430 | 116.59772 | 22986 ft | 359 kts | 160° |
| 2026-04-29 07:38 | -29.08662 | 116.61095 | 22993 ft | 359 kts | 160° |
| 2026-04-29 07:38 | -29.10889 | 116.62415 | 22990 ft | 360 kts | 160° |
| 2026-04-29 07:39 | -29.13126 | 116.63742 | 22993 ft | 360 kts | 160° |
| 2026-04-29 07:39 | -29.15327 | 116.65048 | 22989 ft | 360 kts | 159° |
| 2026-04-29 07:39 | -29.17589 | 116.66351 | 22983 ft | 356 kts | 163° |
| 2026-04-29 07:39 | -29.19910 | 116.66975 | 23014 ft | 338 kts | 182° |
| 2026-04-29 07:40 | -29.22251 | 116.67174 | 22994 ft | 337 kts | 184° |
| 2026-04-29 07:40 | -29.24599 | 116.67351 | 22988 ft | 337 kts | 184° |
| 2026-04-29 07:40 | -29.26956 | 116.67528 | 22990 ft | 337 kts | 184° |
| 2026-04-29 07:40 | -29.29301 | 116.67705 | 22994 ft | 337 kts | 184° |
| 2026-04-29 07:41 | -29.31633 | 116.67883 | 22996 ft | 337 kts | 184° |
| 2026-04-29 07:41 | -29.33971 | 116.68061 | 22995 ft | 338 kts | 184° |
| 2026-04-29 07:41 | -29.36317 | 116.68242 | 22995 ft | 338 kts | 184° |
| 2026-04-29 07:41 | -29.38670 | 116.68424 | 22993 ft | 338 kts | 184° |
| 2026-04-29 07:42 | -29.41029 | 116.68607 | 22993 ft | 338 kts | 184° |
| 2026-04-29 07:42 | -29.43388 | 116.68790 | 22992 ft | 338 kts | 184° |
| 2026-04-29 07:42 | -29.45746 | 116.68973 | 22992 ft | 339 kts | 184° |
| 2026-04-29 07:42 | -29.48106 | 116.69157 | 22993 ft | 339 kts | 184° |
| 2026-04-29 07:43 | -29.50448 | 116.69340 | 22991 ft | 339 kts | 184° |
| 2026-04-29 07:43 | -29.52818 | 116.69524 | 22989 ft | 339 kts | 184° |
| 2026-04-29 07:43 | -29.55154 | 116.69707 | 22992 ft | 339 kts | 184° |
| 2026-04-29 07:43 | -29.57524 | 116.69893 | 22991 ft | 339 kts | 184° |
| 2026-04-29 07:44 | -29.59898 | 116.70078 | 22994 ft | 339 kts | 184° |
| 2026-04-29 07:44 | -29.62256 | 116.70263 | 22994 ft | 340 kts | 184° |
| 2026-04-29 07:44 | -29.64621 | 116.70448 | 22993 ft | 340 kts | 184° |
| 2026-04-29 07:44 | -29.66982 | 116.70633 | 22994 ft | 340 kts | 184° |
| 2026-04-29 07:45 | -29.69332 | 116.70818 | 22994 ft | 341 kts | 184° |
| 2026-04-29 07:45 | -29.71706 | 116.71003 | 22995 ft | 341 kts | 184° |
| 2026-04-29 07:45 | -29.74082 | 116.71190 | 22993 ft | 341 kts | 184° |
| 2026-04-29 07:45 | -29.76438 | 116.71375 | 22992 ft | 341 kts | 184° |
| 2026-04-29 07:46 | -29.78840 | 116.71564 | 22992 ft | 342 kts | 184° |
| 2026-04-29 07:46 | -29.81195 | 116.71749 | 22992 ft | 342 kts | 184° |
| 2026-04-29 07:46 | -29.83584 | 116.71937 | 22992 ft | 342 kts | 184° |
| 2026-04-29 07:46 | -29.85971 | 116.72124 | 22992 ft | 342 kts | 184° |
| 2026-04-29 07:47 | -29.88338 | 116.72311 | 22990 ft | 343 kts | 184° |
| 2026-04-29 07:47 | -29.90734 | 116.72499 | 22989 ft | 343 kts | 184° |
| 2026-04-29 07:47 | -29.93133 | 116.72688 | 22986 ft | 344 kts | 184° |
| 2026-04-29 07:47 | -29.95535 | 116.72877 | 22982 ft | 344 kts | 184° |
| 2026-04-29 07:48 | -29.97903 | 116.73064 | 22988 ft | 344 kts | 184° |
| 2026-04-29 07:48 | -30.00290 | 116.73253 | 22997 ft | 345 kts | 184° |
| 2026-04-29 07:48 | -30.02694 | 116.73443 | 22995 ft | 345 kts | 184° |
| 2026-04-29 07:48 | -30.05115 | 116.73634 | 22992 ft | 345 kts | 184° |
| 2026-04-29 07:49 | -30.07511 | 116.73824 | 22998 ft | 345 kts | 184° |
| 2026-04-29 07:49 | -30.09887 | 116.74012 | 22996 ft | 345 kts | 184° |
| 2026-04-29 07:49 | -30.12305 | 116.74203 | 22994 ft | 345 kts | 184° |
| 2026-04-29 07:49 | -30.14689 | 116.74392 | 23000 ft | 345 kts | 184° |
| 2026-04-29 07:50 | -30.17085 | 116.74582 | 22991 ft | 345 kts | 183° |
| 2026-04-29 07:50 | -30.19497 | 116.74773 | 22990 ft | 345 kts | 184° |
| 2026-04-29 07:50 | -30.21891 | 116.74963 | 22993 ft | 345 kts | 184° |
| 2026-04-29 07:50 | -30.24315 | 116.75155 | 22993 ft | 345 kts | 184° |
| 2026-04-29 07:51 | -30.26698 | 116.75343 | 22995 ft | 345 kts | 183° |
| 2026-04-29 07:51 | -30.29123 | 116.75536 | 22997 ft | 346 kts | 184° |
| 2026-04-29 07:51 | -30.31514 | 116.75721 | 22995 ft | 346 kts | 184° |
| 2026-04-29 07:51 | -30.33924 | 116.75910 | 22987 ft | 346 kts | 184° |
| 2026-04-29 07:52 | -30.36322 | 116.76102 | 22987 ft | 346 kts | 184° |
| 2026-04-29 07:52 | -30.38734 | 116.76296 | 22995 ft | 346 kts | 183° |
| 2026-04-29 07:52 | -30.41189 | 116.76492 | 22989 ft | 346 kts | 183° |
| 2026-04-29 07:52 | -30.43574 | 116.76683 | 22992 ft | 346 kts | 183° |
| 2026-04-29 07:53 | -30.46008 | 116.76878 | 22988 ft | 347 kts | 184° |
| 2026-04-29 07:53 | -30.48420 | 116.77070 | 22995 ft | 347 kts | 184° |
| 2026-04-29 07:53 | -30.50831 | 116.77262 | 22990 ft | 348 kts | 184° |
| 2026-04-29 07:53 | -30.53274 | 116.77457 | 22986 ft | 348 kts | 184° |
| 2026-04-29 07:54 | -30.55685 | 116.77651 | 22988 ft | 348 kts | 184° |
| 2026-04-29 07:54 | -30.58104 | 116.77836 | 22992 ft | 347 kts | 185° |
| 2026-04-29 07:54 | -30.60451 | 116.77522 | 22997 ft | 330 kts | 204° |
| 2026-04-29 07:54 | -30.62600 | 116.76675 | 22989 ft | 328 kts | 207° |
| 2026-04-29 07:55 | -30.64765 | 116.75781 | 22992 ft | 328 kts | 207° |
| 2026-04-29 07:55 | -30.66904 | 116.74895 | 23003 ft | 329 kts | 207° |
| 2026-04-29 07:55 | -30.69062 | 116.74001 | 22996 ft | 329 kts | 207° |
| 2026-04-29 07:55 | -30.71231 | 116.73101 | 22997 ft | 329 kts | 207° |
| 2026-04-29 07:56 | -30.73401 | 116.72205 | 22997 ft | 330 kts | 207° |
| 2026-04-29 07:56 | -30.75561 | 116.71314 | 22993 ft | 331 kts | 207° |
| 2026-04-29 07:56 | -30.77746 | 116.70414 | 22993 ft | 331 kts | 207° |
| 2026-04-29 07:56 | -30.79907 | 116.69523 | 22993 ft | 331 kts | 206° |
| 2026-04-29 07:57 | -30.82105 | 116.68617 | 22988 ft | 332 kts | 207° |
| 2026-04-29 07:57 | -30.84282 | 116.67718 | 22982 ft | 332 kts | 207° |
| 2026-04-29 07:57 | -30.86455 | 116.66822 | 22990 ft | 332 kts | 207° |
| 2026-04-29 07:57 | -30.88640 | 116.65921 | 22986 ft | 332 kts | 207° |
| 2026-04-29 07:58 | -30.90808 | 116.65026 | 22997 ft | 332 kts | 207° |
| 2026-04-29 07:58 | -30.92999 | 116.64120 | 22986 ft | 333 kts | 207° |
| 2026-04-29 07:58 | -30.95198 | 116.63213 | 22981 ft | 333 kts | 207° |
| 2026-04-29 07:58 | -30.97378 | 116.62312 | 22985 ft | 333 kts | 207° |
| 2026-04-29 07:59 | -30.99573 | 116.61403 | 22988 ft | 333 kts | 207° |
| 2026-04-29 07:59 | -31.01762 | 116.60498 | 22988 ft | 333 kts | 207° |
| 2026-04-29 07:59 | -31.03942 | 116.59593 | 22842 ft | 338 kts | 207° |
| 2026-04-29 07:59 | -31.06222 | 116.58642 | 22421 ft | 350 kts | 206° |
| 2026-04-29 08:00 | -31.08550 | 116.57671 | 21913 ft | 360 kts | 205° |
| 2026-04-29 08:00 | -31.10910 | 116.56692 | 21366 ft | 363 kts | 205° |
| 2026-04-29 08:00 | -31.13289 | 116.55710 | 20825 ft | 363 kts | 205° |
| 2026-04-29 08:00 | -31.15695 | 116.54715 | 20261 ft | 364 kts | 204° |
| 2026-04-29 08:01 | -31.18068 | 116.53732 | 19720 ft | 365 kts | 204° |
| 2026-04-29 08:01 | -31.20470 | 116.52737 | 19161 ft | 365 kts | 203° |
| 2026-04-29 08:01 | -31.22874 | 116.51738 | 18608 ft | 366 kts | 203° |
| 2026-04-29 08:01 | -31.25288 | 116.50735 | 18050 ft | 367 kts | 203° |
| 2026-04-29 08:02 | -31.27683 | 116.49739 | 17494 ft | 367 kts | 202° |
| 2026-04-29 08:02 | -31.30091 | 116.48737 | 16943 ft | 367 kts | 202° |
| 2026-04-29 08:02 | -31.32481 | 116.47742 | 16393 ft | 366 kts | 202° |
| 2026-04-29 08:02 | -31.34886 | 116.46739 | 15837 ft | 366 kts | 202° |
| 2026-04-29 08:03 | -31.37269 | 116.45746 | 15294 ft | 364 kts | 202° |
| 2026-04-29 08:03 | -31.39635 | 116.44760 | 14745 ft | 361 kts | 202° |
| 2026-04-29 08:03 | -31.42014 | 116.43769 | 14191 ft | 357 kts | 202° |
| 2026-04-29 08:03 | -31.44318 | 116.42808 | 13667 ft | 354 kts | 202° |
| 2026-04-29 08:04 | -31.46636 | 116.41840 | 13140 ft | 352 kts | 202° |
| 2026-04-29 08:04 | -31.48912 | 116.40788 | 12591 ft | 347 kts | 208° |
| 2026-04-29 08:04 | -31.51001 | 116.39465 | 12091 ft | 343 kts | 212° |
| 2026-04-29 08:04 | -31.53085 | 116.38087 | 11579 ft | 340 kts | 212° |
| 2026-04-29 08:05 | -31.55131 | 116.36730 | 11062 ft | 338 kts | 212° |
| 2026-04-29 08:05 | -31.57140 | 116.35403 | 10552 ft | 326 kts | 212° |
| 2026-04-29 08:05 | -31.59072 | 116.34133 | 10075 ft | 312 kts | 212° |
| 2026-04-29 08:05 | -31.60939 | 116.32906 | 9612 ft | 300 kts | 212° |
| 2026-04-29 08:06 | -31.62722 | 116.31734 | 9166 ft | 289 kts | 213° |
| 2026-04-29 08:06 | -31.64462 | 116.30588 | 8736 ft | 279 kts | 213° |
| 2026-04-29 08:06 | -31.66114 | 116.29500 | 8327 ft | 272 kts | 213° |
| 2026-04-29 08:06 | -31.67750 | 116.28416 | 7921 ft | 269 kts | 212° |
| 2026-04-29 08:07 | -31.69385 | 116.27335 | 7515 ft | 267 kts | 212° |
| 2026-04-29 08:07 | -31.70995 | 116.26270 | 7116 ft | 266 kts | 212° |
| 2026-04-29 08:07 | -31.72616 | 116.25199 | 6713 ft | 264 kts | 212° |
| 2026-04-29 08:07 | -31.74209 | 116.24147 | 6317 ft | 263 kts | 212° |
| 2026-04-29 08:08 | -31.75795 | 116.23101 | 5919 ft | 261 kts | 212° |
| 2026-04-29 08:08 | -31.77368 | 116.22063 | 5530 ft | 260 kts | 212° |
| 2026-04-29 08:08 | -31.78903 | 116.20977 | 5147 ft | 257 kts | 216° |
| 2026-04-29 08:08 | -31.80315 | 116.19681 | 4747 ft | 255 kts | 223° |
| 2026-04-29 08:09 | -31.81634 | 116.18302 | 4312 ft | 255 kts | 223° |
| 2026-04-29 08:09 | -31.82963 | 116.16893 | 3873 ft | 254 kts | 223° |
| 2026-04-29 08:09 | -31.84131 | 116.15406 | 3429 ft | 248 kts | 236° |
| 2026-04-29 08:09 | -31.85012 | 116.13663 | 3001 ft | 242 kts | 242° |
| 2026-04-29 08:10 | -31.85825 | 116.11987 | 2695 ft | 232 kts | 240° |
| 2026-04-29 08:10 | -31.86640 | 116.10394 | 2399 ft | 222 kts | 239° |
| 2026-04-29 08:10 | -31.87422 | 116.08879 | 2122 ft | 212 kts | 239° |
| 2026-04-29 08:10 | -31.88168 | 116.07433 | 1852 ft | 202 kts | 238° |
| 2026-04-29 08:11 | -31.88866 | 116.06080 | 1616 ft | 184 kts | 238° |
| 2026-04-29 08:11 | -31.89504 | 116.04833 | 1419 ft | 170 kts | 239° |
| 2026-04-29 08:11 | -31.90094 | 116.03680 | 1182 ft | 160 kts | 239° |
| 2026-04-29 08:11 | -31.90651 | 116.02602 | 998 ft | 151 kts | 239° |
| 2026-04-29 08:12 | -31.91183 | 116.01568 | 798 ft | 144 kts | 239° |
| 2026-04-29 08:12 | -31.91701 | 116.00562 | 615 ft | 141 kts | 239° |
| 2026-04-29 08:12 | -31.92203 | 115.99587 | 440 ft | 140 kts | 239° |
| 2026-04-29 08:12 | -31.92708 | 115.98609 | 263 ft | 140 kts | 239° |
| 2026-04-29 08:13 | -31.93219 | 115.97629 | 82 ft | 133 kts | 239° |
| 2026-04-29 08:13 | -31.93645 | 115.96800 | 73 ft | 93 kts | 240° |
| 2026-04-29 08:13 | -31.93856 | 115.96386 | 74 ft | 33 kts | 237° |
| 2026-04-29 08:13 | -31.93992 | 115.96278 | 78 ft | 25 kts | 194° |
| 2026-04-29 08:14 | -31.94142 | 115.96236 | 79 ft | 20 kts | 192° |
| 2026-04-29 08:14 | -31.94305 | 115.96188 | 82 ft | 26 kts | 193° |
| 2026-04-29 08:14 | -31.94422 | 115.96265 | 81 ft | 25 kts | 105° |
| 2026-04-29 08:14 | -31.94466 | 115.96466 | 78 ft | 25 kts | 105° |
| 2026-04-29 08:15 | -31.94503 | 115.96655 | 80 ft | 18 kts | 94° |
| 2026-04-29 08:15 | -31.94426 | 115.96743 | 81 ft | 20 kts | 15° |
| 2026-04-29 08:15 | -31.94345 | 115.96835 | 80 ft | 17 kts | 98° |
| 2026-04-29 08:15 | -31.94371 | 115.96979 | 79 ft | 12 kts | 82° |
| 2026-04-29 08:16 | -31.94304 | 115.97032 | 78 ft | 11 kts | 56° |
| 2026-04-29 08:16 | -31.94301 | 115.97073 | 79 ft | 4 kts | 94° |
| 2026-04-29 08:16 | -31.94303 | 115.97092 | 80 ft | 0 kts | 102° |